sensor_id;sensor_type;location;lat;lon;timestamp;temperature;humidity
24158;DHT22;12316;50.904;4.200;2023-07-31T00:00:42;18.30;99.90
24158;DHT22;12316;50.904;4.200;2023-07-31T00:03:07;18.30;99.90
24158;DHT22;12316;50.904;4.200;2023-07-31T00:05:33;18.30;99.90
24158;DHT22;12316;50.904;4.200;2023-07-31T00:07:59;18.30;99.90
24158;DHT22;12316;50.904;4.200;2023-07-31T00:10:24;18.40;99.90
24158;DHT22;12316;50.904;4.200;2023-07-31T00:12:50;18.40;99.90
24158;DHT22;12316;50.904;4.200;2023-07-31T00:15:15;18.30;99.90
24158;DHT22;12316;50.904;4.200;2023-07-31T00:17:41;18.30;99.90
24158;DHT22;12316;50.904;4.200;2023-07-31T00:20:07;18.40;99.90
24158;DHT22;12316;50.904;4.200;2023-07-31T00:22:33;18.40;99.90
24158;DHT22;12316;50.904;4.200;2023-07-31T00:24:59;18.40;99.90
24158;DHT22;12316;50.904;4.200;2023-07-31T00:27:25;18.50;99.90
24158;DHT22;12316;50.904;4.200;2023-07-31T00:29:51;18.60;99.90
24158;DHT22;12316;50.904;4.200;2023-07-31T00:32:16;18.50;99.90
24158;DHT22;12316;50.904;4.200;2023-07-31T00:34:42;18.50;99.90
24158;DHT22;12316;50.904;4.200;2023-07-31T00:37:07;18.40;99.90
24158;DHT22;12316;50.904;4.200;2023-07-31T00:39:34;18.50;99.90
24158;DHT22;12316;50.904;4.200;2023-07-31T00:42:00;18.40;99.90
24158;DHT22;12316;50.904;4.200;2023-07-31T00:44:26;18.40;99.90
24158;DHT22;12316;50.904;4.200;2023-07-31T00:46:52;18.40;99.90
24158;DHT22;12316;50.904;4.200;2023-07-31T00:49:19;18.50;99.90
24158;DHT22;12316;50.904;4.200;2023-07-31T00:51:45;18.50;99.90
24158;DHT22;12316;50.904;4.200;2023-07-31T00:54:11;18.60;99.90
24158;DHT22;12316;50.904;4.200;2023-07-31T00:56:36;18.60;99.90
24158;DHT22;12316;50.904;4.200;2023-07-31T00:59:03;18.60;99.90
24158;DHT22;12316;50.904;4.200;2023-07-31T01:01:28;18.50;99.90
24158;DHT22;12316;50.904;4.200;2023-07-31T01:03:54;18.60;99.90
24158;DHT22;12316;50.904;4.200;2023-07-31T01:06:43;18.60;99.90
24158;DHT22;12316;50.904;4.200;2023-07-31T01:09:34;18.60;99.90
24158;DHT22;12316;50.904;4.200;2023-07-31T01:12:03;18.70;99.90
24158;DHT22;12316;50.904;4.200;2023-07-31T01:14:29;18.60;99.90
24158;DHT22;12316;50.904;4.200;2023-07-31T01:16:55;18.60;99.90
24158;DHT22;12316;50.904;4.200;2023-07-31T01:19:23;18.60;99.90
24158;DHT22;12316;50.904;4.200;2023-07-31T01:27:56;18.70;99.90
24158;DHT22;12316;50.904;4.200;2023-07-31T01:30:27;18.50;99.90
24158;DHT22;12316;50.904;4.200;2023-07-31T01:32:54;18.60;99.90
24158;DHT22;12316;50.904;4.200;2023-07-31T01:35:21;18.60;99.90
24158;DHT22;12316;50.904;4.200;2023-07-31T01:37:47;18.70;99.90
24158;DHT22;12316;50.904;4.200;2023-07-31T01:40:13;18.70;99.90
24158;DHT22;12316;50.904;4.200;2023-07-31T01:42:38;18.70;99.90
24158;DHT22;12316;50.904;4.200;2023-07-31T01:45:04;18.60;99.90
24158;DHT22;12316;50.904;4.200;2023-07-31T01:47:30;18.70;99.90
24158;DHT22;12316;50.904;4.200;2023-07-31T01:49:56;18.70;99.90
24158;DHT22;12316;50.904;4.200;2023-07-31T01:52:21;18.70;99.90
24158;DHT22;12316;50.904;4.200;2023-07-31T01:54:47;18.70;99.90
24158;DHT22;12316;50.904;4.200;2023-07-31T01:57:13;18.80;99.90
24158;DHT22;12316;50.904;4.200;2023-07-31T01:59:39;18.80;99.90
24158;DHT22;12316;50.904;4.200;2023-07-31T02:02:05;18.80;99.90
24158;DHT22;12316;50.904;4.200;2023-07-31T02:04:31;18.90;99.90
24158;DHT22;12316;50.904;4.200;2023-07-31T02:06:56;18.90;99.90
24158;DHT22;12316;50.904;4.200;2023-07-31T02:09:22;18.70;99.90
24158;DHT22;12316;50.904;4.200;2023-07-31T02:11:48;18.70;99.90
24158;DHT22;12316;50.904;4.200;2023-07-31T02:14:13;18.70;99.90
24158;DHT22;12316;50.904;4.200;2023-07-31T02:16:39;18.70;99.90
24158;DHT22;12316;50.904;4.200;2023-07-31T02:19:04;18.70;99.90
24158;DHT22;12316;50.904;4.200;2023-07-31T02:21:30;18.80;99.90
24158;DHT22;12316;50.904;4.200;2023-07-31T02:23:56;18.90;99.90
24158;DHT22;12316;50.904;4.200;2023-07-31T02:26:21;19.00;99.90
24158;DHT22;12316;50.904;4.200;2023-07-31T02:28:48;19.00;99.90
24158;DHT22;12316;50.904;4.200;2023-07-31T02:31:14;18.90;99.90
24158;DHT22;12316;50.904;4.200;2023-07-31T02:33:39;18.90;99.90
24158;DHT22;12316;50.904;4.200;2023-07-31T02:36:05;18.90;99.90
24158;DHT22;12316;50.904;4.200;2023-07-31T02:38:30;18.80;99.90
24158;DHT22;12316;50.904;4.200;2023-07-31T02:40:56;18.90;99.90
24158;DHT22;12316;50.904;4.200;2023-07-31T02:43:22;18.80;99.90
24158;DHT22;12316;50.904;4.200;2023-07-31T02:45:51;18.90;99.90
24158;DHT22;12316;50.904;4.200;2023-07-31T02:48:18;18.80;99.90
24158;DHT22;12316;50.904;4.200;2023-07-31T02:50:45;18.80;99.90
24158;DHT22;12316;50.904;4.200;2023-07-31T02:53:11;18.80;99.90
24158;DHT22;12316;50.904;4.200;2023-07-31T02:55:36;18.80;99.90
24158;DHT22;12316;50.904;4.200;2023-07-31T02:58:02;18.90;99.90
24158;DHT22;12316;50.904;4.200;2023-07-31T03:00:28;18.80;99.90
24158;DHT22;12316;50.904;4.200;2023-07-31T03:02:53;18.80;99.90
24158;DHT22;12316;50.904;4.200;2023-07-31T03:05:19;18.80;99.90
24158;DHT22;12316;50.904;4.200;2023-07-31T03:07:44;18.80;99.90
24158;DHT22;12316;50.904;4.200;2023-07-31T03:10:10;18.80;99.90
24158;DHT22;12316;50.904;4.200;2023-07-31T03:12:36;18.70;99.90
24158;DHT22;12316;50.904;4.200;2023-07-31T03:15:01;18.60;99.90
24158;DHT22;12316;50.904;4.200;2023-07-31T03:17:27;18.60;99.90
24158;DHT22;12316;50.904;4.200;2023-07-31T03:19:53;18.50;99.90
24158;DHT22;12316;50.904;4.200;2023-07-31T03:22:18;18.60;99.90
24158;DHT22;12316;50.904;4.200;2023-07-31T03:24:44;18.60;99.90
24158;DHT22;12316;50.904;4.200;2023-07-31T03:27:10;18.60;99.90
24158;DHT22;12316;50.904;4.200;2023-07-31T03:29:35;18.60;99.90
24158;DHT22;12316;50.904;4.200;2023-07-31T03:32:01;18.40;99.90
24158;DHT22;12316;50.904;4.200;2023-07-31T03:34:27;18.50;99.90
24158;DHT22;12316;50.904;4.200;2023-07-31T03:36:52;18.40;99.90
24158;DHT22;12316;50.904;4.200;2023-07-31T03:39:18;18.30;99.90
24158;DHT22;12316;50.904;4.200;2023-07-31T03:41:44;18.40;99.90
24158;DHT22;12316;50.904;4.200;2023-07-31T03:44:09;18.50;99.90
24158;DHT22;12316;50.904;4.200;2023-07-31T03:46:35;18.40;99.90
24158;DHT22;12316;50.904;4.200;2023-07-31T03:49:01;18.50;99.90
24158;DHT22;12316;50.904;4.200;2023-07-31T03:51:27;18.40;99.90
24158;DHT22;12316;50.904;4.200;2023-07-31T03:53:53;18.40;99.90
24158;DHT22;12316;50.904;4.200;2023-07-31T03:56:18;18.40;99.90
24158;DHT22;12316;50.904;4.200;2023-07-31T03:58:44;18.50;99.90
24158;DHT22;12316;50.904;4.200;2023-07-31T04:01:09;18.40;99.90
24158;DHT22;12316;50.904;4.200;2023-07-31T04:03:35;18.40;99.90
24158;DHT22;12316;50.904;4.200;2023-07-31T04:06:00;18.40;99.90
24158;DHT22;12316;50.904;4.200;2023-07-31T04:08:26;18.30;99.90
24158;DHT22;12316;50.904;4.200;2023-07-31T04:10:52;18.20;99.90
24158;DHT22;12316;50.904;4.200;2023-07-31T04:13:17;18.20;99.90
24158;DHT22;12316;50.904;4.200;2023-07-31T04:15:48;18.20;99.90
24158;DHT22;12316;50.904;4.200;2023-07-31T04:18:14;18.30;99.90
24158;DHT22;12316;50.904;4.200;2023-07-31T04:20:40;18.30;99.90
24158;DHT22;12316;50.904;4.200;2023-07-31T04:23:06;18.20;99.90
24158;DHT22;12316;50.904;4.200;2023-07-31T04:25:31;18.30;99.90
24158;DHT22;12316;50.904;4.200;2023-07-31T04:27:57;18.20;99.90
24158;DHT22;12316;50.904;4.200;2023-07-31T04:30:22;18.20;99.90
24158;DHT22;12316;50.904;4.200;2023-07-31T04:32:48;18.10;99.90
24158;DHT22;12316;50.904;4.200;2023-07-31T04:35:14;18.20;99.90
24158;DHT22;12316;50.904;4.200;2023-07-31T04:37:39;18.30;99.90
24158;DHT22;12316;50.904;4.200;2023-07-31T04:40:06;18.40;99.90
24158;DHT22;12316;50.904;4.200;2023-07-31T04:42:31;18.40;99.90
24158;DHT22;12316;50.904;4.200;2023-07-31T04:44:57;18.30;99.90
24158;DHT22;12316;50.904;4.200;2023-07-31T04:47:23;18.50;99.90
24158;DHT22;12316;50.904;4.200;2023-07-31T04:49:48;18.40;99.90
24158;DHT22;12316;50.904;4.200;2023-07-31T04:52:14;18.30;99.90
24158;DHT22;12316;50.904;4.200;2023-07-31T04:54:39;18.40;99.90
24158;DHT22;12316;50.904;4.200;2023-07-31T04:57:06;18.30;99.90
24158;DHT22;12316;50.904;4.200;2023-07-31T04:59:32;18.40;99.90
24158;DHT22;12316;50.904;4.200;2023-07-31T05:01:57;18.40;99.90
24158;DHT22;12316;50.904;4.200;2023-07-31T05:04:23;18.50;99.90
24158;DHT22;12316;50.904;4.200;2023-07-31T05:06:49;18.30;99.90
24158;DHT22;12316;50.904;4.200;2023-07-31T05:09:14;18.20;99.90
24158;DHT22;12316;50.904;4.200;2023-07-31T05:11:40;18.10;99.90
24158;DHT22;12316;50.904;4.200;2023-07-31T05:14:08;18.10;99.90
24158;DHT22;12316;50.904;4.200;2023-07-31T05:16:33;18.10;99.90
24158;DHT22;12316;50.904;4.200;2023-07-31T05:18:59;18.10;99.90
24158;DHT22;12316;50.904;4.200;2023-07-31T05:21:25;18.10;99.90
24158;DHT22;12316;50.904;4.200;2023-07-31T05:23:50;18.20;99.90
24158;DHT22;12316;50.904;4.200;2023-07-31T05:26:16;18.20;99.90
24158;DHT22;12316;50.904;4.200;2023-07-31T05:28:41;18.10;99.90
24158;DHT22;12316;50.904;4.200;2023-07-31T05:31:07;18.00;99.90
24158;DHT22;12316;50.904;4.200;2023-07-31T05:33:33;18.00;99.90
24158;DHT22;12316;50.904;4.200;2023-07-31T05:35:58;18.00;99.90
24158;DHT22;12316;50.904;4.200;2023-07-31T05:38:24;18.20;99.90
24158;DHT22;12316;50.904;4.200;2023-07-31T05:40:50;18.20;99.90
24158;DHT22;12316;50.904;4.200;2023-07-31T05:43:15;18.20;99.90
24158;DHT22;12316;50.904;4.200;2023-07-31T05:45:42;18.10;99.90
24158;DHT22;12316;50.904;4.200;2023-07-31T05:48:08;18.20;99.90
24158;DHT22;12316;50.904;4.200;2023-07-31T05:50:34;18.30;99.90
24158;DHT22;12316;50.904;4.200;2023-07-31T05:52:59;18.20;99.90
24158;DHT22;12316;50.904;4.200;2023-07-31T05:55:25;18.20;99.90
24158;DHT22;12316;50.904;4.200;2023-07-31T05:57:54;18.00;99.90
24158;DHT22;12316;50.904;4.200;2023-07-31T06:00:19;18.10;99.90
24158;DHT22;12316;50.904;4.200;2023-07-31T06:02:47;18.10;99.90
24158;DHT22;12316;50.904;4.200;2023-07-31T06:05:13;18.10;99.90
24158;DHT22;12316;50.904;4.200;2023-07-31T06:07:38;18.10;99.90
24158;DHT22;12316;50.904;4.200;2023-07-31T06:10:05;18.10;99.90
24158;DHT22;12316;50.904;4.200;2023-07-31T06:12:35;18.10;99.90
24158;DHT22;12316;50.904;4.200;2023-07-31T06:15:01;18.10;99.90
24158;DHT22;12316;50.904;4.200;2023-07-31T06:17:27;18.00;99.90
24158;DHT22;12316;50.904;4.200;2023-07-31T06:19:53;18.00;99.90
24158;DHT22;12316;50.904;4.200;2023-07-31T06:22:18;18.10;99.90
24158;DHT22;12316;50.904;4.200;2023-07-31T06:24:44;18.10;99.90
24158;DHT22;12316;50.904;4.200;2023-07-31T06:27:10;18.20;99.90
24158;DHT22;12316;50.904;4.200;2023-07-31T06:29:36;18.30;99.90
24158;DHT22;12316;50.904;4.200;2023-07-31T06:32:02;18.50;99.90
24158;DHT22;12316;50.904;4.200;2023-07-31T06:34:28;18.50;99.90
24158;DHT22;12316;50.904;4.200;2023-07-31T06:36:55;18.60;99.90
24158;DHT22;12316;50.904;4.200;2023-07-31T06:39:20;18.60;99.90
24158;DHT22;12316;50.904;4.200;2023-07-31T06:41:46;18.60;99.90
24158;DHT22;12316;50.904;4.200;2023-07-31T06:44:11;18.70;99.90
24158;DHT22;12316;50.904;4.200;2023-07-31T06:46:37;18.80;99.90
24158;DHT22;12316;50.904;4.200;2023-07-31T06:49:03;19.00;99.90
24158;DHT22;12316;50.904;4.200;2023-07-31T06:51:29;19.00;99.90
24158;DHT22;12316;50.904;4.200;2023-07-31T06:53:57;19.10;99.90
24158;DHT22;12316;50.904;4.200;2023-07-31T06:56:22;19.10;99.90
24158;DHT22;12316;50.904;4.200;2023-07-31T06:58:48;19.10;99.90
24158;DHT22;12316;50.904;4.200;2023-07-31T07:01:14;19.00;99.90
24158;DHT22;12316;50.904;4.200;2023-07-31T07:03:40;19.10;99.90
24158;DHT22;12316;50.904;4.200;2023-07-31T07:06:06;19.20;99.90
24158;DHT22;12316;50.904;4.200;2023-07-31T07:08:32;19.30;99.90
24158;DHT22;12316;50.904;4.200;2023-07-31T07:10:58;19.30;99.90
24158;DHT22;12316;50.904;4.200;2023-07-31T07:13:23;19.40;99.90
24158;DHT22;12316;50.904;4.200;2023-07-31T07:15:49;19.40;99.90
24158;DHT22;12316;50.904;4.200;2023-07-31T07:18:15;19.60;99.90
24158;DHT22;12316;50.904;4.200;2023-07-31T07:20:46;19.60;99.90
24158;DHT22;12316;50.904;4.200;2023-07-31T07:23:12;19.50;99.90
24158;DHT22;12316;50.904;4.200;2023-07-31T07:25:38;19.30;99.90
24158;DHT22;12316;50.904;4.200;2023-07-31T07:28:04;19.10;99.90
24158;DHT22;12316;50.904;4.200;2023-07-31T07:30:29;19.00;99.90
24158;DHT22;12316;50.904;4.200;2023-07-31T07:32:55;19.10;99.90
24158;DHT22;12316;50.904;4.200;2023-07-31T07:35:20;19.10;99.90
24158;DHT22;12316;50.904;4.200;2023-07-31T07:37:48;19.10;99.90
24158;DHT22;12316;50.904;4.200;2023-07-31T07:40:15;19.10;99.90
24158;DHT22;12316;50.904;4.200;2023-07-31T07:42:41;19.20;99.90
24158;DHT22;12316;50.904;4.200;2023-07-31T07:45:08;19.30;99.90
24158;DHT22;12316;50.904;4.200;2023-07-31T07:47:34;19.30;99.90
24158;DHT22;12316;50.904;4.200;2023-07-31T07:49:59;19.30;99.90
24158;DHT22;12316;50.904;4.200;2023-07-31T07:52:25;19.30;99.90
24158;DHT22;12316;50.904;4.200;2023-07-31T07:54:50;19.40;99.90
24158;DHT22;12316;50.904;4.200;2023-07-31T07:57:16;19.50;99.90
24158;DHT22;12316;50.904;4.200;2023-07-31T07:59:42;19.70;99.90
24158;DHT22;12316;50.904;4.200;2023-07-31T08:02:08;19.80;99.90
24158;DHT22;12316;50.904;4.200;2023-07-31T08:04:33;19.90;99.90
24158;DHT22;12316;50.904;4.200;2023-07-31T08:06:59;20.10;99.90
24158;DHT22;12316;50.904;4.200;2023-07-31T08:09:24;20.10;99.90
24158;DHT22;12316;50.904;4.200;2023-07-31T08:11:50;20.20;99.90
24158;DHT22;12316;50.904;4.200;2023-07-31T08:14:15;20.20;99.90
24158;DHT22;12316;50.904;4.200;2023-07-31T08:16:42;20.10;99.90
24158;DHT22;12316;50.904;4.200;2023-07-31T08:19:07;20.00;99.90
24158;DHT22;12316;50.904;4.200;2023-07-31T08:21:33;19.90;99.90
24158;DHT22;12316;50.904;4.200;2023-07-31T08:23:59;19.90;99.90
24158;DHT22;12316;50.904;4.200;2023-07-31T08:26:24;19.90;99.90
24158;DHT22;12316;50.904;4.200;2023-07-31T08:28:50;20.00;99.90
24158;DHT22;12316;50.904;4.200;2023-07-31T08:31:16;20.00;99.90
24158;DHT22;12316;50.904;4.200;2023-07-31T08:33:41;20.00;99.90
24158;DHT22;12316;50.904;4.200;2023-07-31T08:36:07;19.90;99.90
24158;DHT22;12316;50.904;4.200;2023-07-31T08:38:33;19.80;99.90
24158;DHT22;12316;50.904;4.200;2023-07-31T08:41:00;19.80;99.90
24158;DHT22;12316;50.904;4.200;2023-07-31T08:43:26;19.80;99.90
24158;DHT22;12316;50.904;4.200;2023-07-31T08:45:52;19.70;99.90
24158;DHT22;12316;50.904;4.200;2023-07-31T08:48:22;19.80;99.90
24158;DHT22;12316;50.904;4.200;2023-07-31T08:50:48;19.80;99.90
24158;DHT22;12316;50.904;4.200;2023-07-31T08:53:14;19.80;99.90
24158;DHT22;12316;50.904;4.200;2023-07-31T08:55:40;19.80;99.90
24158;DHT22;12316;50.904;4.200;2023-07-31T08:58:06;20.00;99.90
24158;DHT22;12316;50.904;4.200;2023-07-31T09:00:32;20.10;99.90
24158;DHT22;12316;50.904;4.200;2023-07-31T09:03:18;20.10;99.90
24158;DHT22;12316;50.904;4.200;2023-07-31T09:05:45;20.10;99.90
24158;DHT22;12316;50.904;4.200;2023-07-31T09:08:13;20.20;99.90
24158;DHT22;12316;50.904;4.200;2023-07-31T09:10:44;20.30;99.90
24158;DHT22;12316;50.904;4.200;2023-07-31T09:13:11;20.40;99.90
24158;DHT22;12316;50.904;4.200;2023-07-31T09:15:37;20.40;99.90
24158;DHT22;12316;50.904;4.200;2023-07-31T09:18:05;20.50;99.90
24158;DHT22;12316;50.904;4.200;2023-07-31T09:20:31;20.60;99.90
24158;DHT22;12316;50.904;4.200;2023-07-31T09:23:05;20.60;99.90
24158;DHT22;12316;50.904;4.200;2023-07-31T09:25:32;20.50;99.90
24158;DHT22;12316;50.904;4.200;2023-07-31T09:28:08;20.50;99.90
24158;DHT22;12316;50.904;4.200;2023-07-31T09:30:48;20.40;99.90
24158;DHT22;12316;50.904;4.200;2023-07-31T09:33:15;20.30;99.90
24158;DHT22;12316;50.904;4.200;2023-07-31T09:35:41;20.30;99.90
24158;DHT22;12316;50.904;4.200;2023-07-31T09:38:12;20.30;99.90
24158;DHT22;12316;50.904;4.200;2023-07-31T09:40:43;20.20;99.90
24158;DHT22;12316;50.904;4.200;2023-07-31T09:43:16;20.20;99.90
24158;DHT22;12316;50.904;4.200;2023-07-31T09:45:44;20.10;99.90
24158;DHT22;12316;50.904;4.200;2023-07-31T09:48:12;20.00;99.90
24158;DHT22;12316;50.904;4.200;2023-07-31T09:50:39;19.90;99.90
24158;DHT22;12316;50.904;4.200;2023-07-31T09:53:06;19.80;99.90
24158;DHT22;12316;50.904;4.200;2023-07-31T09:55:32;19.60;99.90
24158;DHT22;12316;50.904;4.200;2023-07-31T09:57:58;19.40;99.90
24158;DHT22;12316;50.904;4.200;2023-07-31T10:00:24;19.40;99.90
24158;DHT22;12316;50.904;4.200;2023-07-31T10:02:54;19.50;99.90
24158;DHT22;12316;50.904;4.200;2023-07-31T10:05:22;19.70;99.90
24158;DHT22;12316;50.904;4.200;2023-07-31T10:07:54;19.70;99.90
24158;DHT22;12316;50.904;4.200;2023-07-31T10:10:21;19.80;99.90
24158;DHT22;12316;50.904;4.200;2023-07-31T10:12:48;19.60;99.90
24158;DHT22;12316;50.904;4.200;2023-07-31T10:15:15;19.70;99.90
24158;DHT22;12316;50.904;4.200;2023-07-31T10:17:42;19.80;99.90
24158;DHT22;12316;50.904;4.200;2023-07-31T10:20:08;20.00;99.90
24158;DHT22;12316;50.904;4.200;2023-07-31T10:22:35;20.10;99.90
24158;DHT22;12316;50.904;4.200;2023-07-31T10:25:01;20.20;99.90
24158;DHT22;12316;50.904;4.200;2023-07-31T10:27:27;20.20;99.90
24158;DHT22;12316;50.904;4.200;2023-07-31T10:29:57;20.10;99.90
24158;DHT22;12316;50.904;4.200;2023-07-31T10:32:24;20.10;99.90
24158;DHT22;12316;50.904;4.200;2023-07-31T10:34:51;20.00;99.90
24158;DHT22;12316;50.904;4.200;2023-07-31T10:37:25;20.10;99.90
24158;DHT22;12316;50.904;4.200;2023-07-31T10:42:44;20.40;99.90
24158;DHT22;12316;50.904;4.200;2023-07-31T10:45:10;20.60;99.90
24158;DHT22;12316;50.904;4.200;2023-07-31T10:47:44;21.00;99.90
24158;DHT22;12316;50.904;4.200;2023-07-31T10:50:18;21.00;99.90
24158;DHT22;12316;50.904;4.200;2023-07-31T10:52:51;21.00;99.90
24158;DHT22;12316;50.904;4.200;2023-07-31T10:57:51;21.40;99.90
24158;DHT22;12316;50.904;4.200;2023-07-31T11:00:24;21.30;99.90
24158;DHT22;12316;50.904;4.200;2023-07-31T11:03:14;21.30;99.90
24158;DHT22;12316;50.904;4.200;2023-07-31T11:05:50;21.40;99.90
24158;DHT22;12316;50.904;4.200;2023-07-31T11:08:23;21.50;99.90
24158;DHT22;12316;50.904;4.200;2023-07-31T11:13:28;22.00;99.90
24158;DHT22;12316;50.904;4.200;2023-07-31T11:15:54;22.20;99.90
24158;DHT22;12316;50.904;4.200;2023-07-31T11:18:20;21.90;99.90
24158;DHT22;12316;50.904;4.200;2023-07-31T11:20:45;21.80;99.90
24158;DHT22;12316;50.904;4.200;2023-07-31T11:23:11;21.70;99.90
24158;DHT22;12316;50.904;4.200;2023-07-31T11:25:39;21.30;99.90
24158;DHT22;12316;50.904;4.200;2023-07-31T11:28:09;21.10;99.90
24158;DHT22;12316;50.904;4.200;2023-07-31T11:30:35;21.00;99.90
24158;DHT22;12316;50.904;4.200;2023-07-31T11:33:05;21.00;99.90
24158;DHT22;12316;50.904;4.200;2023-07-31T11:35:36;20.90;99.90
24158;DHT22;12316;50.904;4.200;2023-07-31T11:38:07;21.00;99.90
24158;DHT22;12316;50.904;4.200;2023-07-31T11:40:41;20.90;99.90
24158;DHT22;12316;50.904;4.200;2023-07-31T11:43:07;21.00;99.90
24158;DHT22;12316;50.904;4.200;2023-07-31T11:45:33;20.90;99.90
24158;DHT22;12316;50.904;4.200;2023-07-31T11:48:00;21.00;99.90
24158;DHT22;12316;50.904;4.200;2023-07-31T11:50:26;20.80;99.90
24158;DHT22;12316;50.904;4.200;2023-07-31T11:53:02;21.00;99.90
24158;DHT22;12316;50.904;4.200;2023-07-31T11:55:29;21.10;99.90
24158;DHT22;12316;50.904;4.200;2023-07-31T11:57:57;21.20;99.90
24158;DHT22;12316;50.904;4.200;2023-07-31T12:00:23;21.20;99.90
24158;DHT22;12316;50.904;4.200;2023-07-31T12:02:50;21.30;99.90
24158;DHT22;12316;50.904;4.200;2023-07-31T12:05:16;21.20;99.90
24158;DHT22;12316;50.904;4.200;2023-07-31T12:07:44;21.30;99.90
24158;DHT22;12316;50.904;4.200;2023-07-31T12:10:10;21.50;99.90
24158;DHT22;12316;50.904;4.200;2023-07-31T12:12:35;21.60;99.90
24158;DHT22;12316;50.904;4.200;2023-07-31T12:15:01;21.70;99.90
24158;DHT22;12316;50.904;4.200;2023-07-31T12:17:27;21.60;99.90
24158;DHT22;12316;50.904;4.200;2023-07-31T12:19:52;21.60;99.90
24158;DHT22;12316;50.904;4.200;2023-07-31T12:22:20;21.60;99.90
24158;DHT22;12316;50.904;4.200;2023-07-31T12:24:46;21.60;99.90
24158;DHT22;12316;50.904;4.200;2023-07-31T12:27:13;21.60;99.90
24158;DHT22;12316;50.904;4.200;2023-07-31T12:29:42;21.80;99.90
24158;DHT22;12316;50.904;4.200;2023-07-31T12:32:24;21.90;99.90
24158;DHT22;12316;50.904;4.200;2023-07-31T12:34:50;22.20;99.90
24158;DHT22;12316;50.904;4.200;2023-07-31T12:37:16;22.10;99.90
24158;DHT22;12316;50.904;4.200;2023-07-31T12:39:43;22.10;99.90
24158;DHT22;12316;50.904;4.200;2023-07-31T12:42:09;22.20;99.90
24158;DHT22;12316;50.904;4.200;2023-07-31T12:44:34;22.10;99.90
24158;DHT22;12316;50.904;4.200;2023-07-31T12:47:00;21.90;99.90
24158;DHT22;12316;50.904;4.200;2023-07-31T12:49:26;21.90;99.90
24158;DHT22;12316;50.904;4.200;2023-07-31T12:51:51;21.70;99.90
24158;DHT22;12316;50.904;4.200;2023-07-31T12:54:17;21.70;99.90
24158;DHT22;12316;50.904;4.200;2023-07-31T12:56:42;21.80;99.90
24158;DHT22;12316;50.904;4.200;2023-07-31T12:59:08;21.60;99.90
24158;DHT22;12316;50.904;4.200;2023-07-31T13:01:34;21.50;99.90
24158;DHT22;12316;50.904;4.200;2023-07-31T13:04:00;21.20;99.90
24158;DHT22;12316;50.904;4.200;2023-07-31T13:06:25;21.10;99.90
24158;DHT22;12316;50.904;4.200;2023-07-31T13:08:51;21.00;99.90
24158;DHT22;12316;50.904;4.200;2023-07-31T13:11:17;20.60;99.90
24158;DHT22;12316;50.904;4.200;2023-07-31T13:13:42;20.40;99.90
24158;DHT22;12316;50.904;4.200;2023-07-31T13:16:08;20.20;99.90
24158;DHT22;12316;50.904;4.200;2023-07-31T13:18:34;20.10;99.90
24158;DHT22;12316;50.904;4.200;2023-07-31T13:20:59;20.00;99.90
24158;DHT22;12316;50.904;4.200;2023-07-31T13:23:25;19.90;99.90
24158;DHT22;12316;50.904;4.200;2023-07-31T13:25:50;19.80;99.90
24158;DHT22;12316;50.904;4.200;2023-07-31T13:28:16;19.70;99.90
24158;DHT22;12316;50.904;4.200;2023-07-31T13:30:42;19.60;99.90
24158;DHT22;12316;50.904;4.200;2023-07-31T13:33:07;19.60;99.90
24158;DHT22;12316;50.904;4.200;2023-07-31T13:35:33;19.60;99.90
24158;DHT22;12316;50.904;4.200;2023-07-31T13:37:58;19.50;99.90
24158;DHT22;12316;50.904;4.200;2023-07-31T13:40:24;19.60;99.90
24158;DHT22;12316;50.904;4.200;2023-07-31T13:42:49;19.60;99.90
24158;DHT22;12316;50.904;4.200;2023-07-31T13:45:15;19.50;99.90
24158;DHT22;12316;50.904;4.200;2023-07-31T13:47:41;19.50;99.90
24158;DHT22;12316;50.904;4.200;2023-07-31T13:50:07;19.40;99.90
24158;DHT22;12316;50.904;4.200;2023-07-31T13:52:32;19.30;99.90
24158;DHT22;12316;50.904;4.200;2023-07-31T13:54:58;19.30;99.90
24158;DHT22;12316;50.904;4.200;2023-07-31T13:57:24;19.20;99.90
24158;DHT22;12316;50.904;4.200;2023-07-31T13:59:49;19.30;99.90
24158;DHT22;12316;50.904;4.200;2023-07-31T14:02:15;19.40;99.90
24158;DHT22;12316;50.904;4.200;2023-07-31T14:04:40;19.30;99.90
24158;DHT22;12316;50.904;4.200;2023-07-31T14:07:06;19.30;99.90
24158;DHT22;12316;50.904;4.200;2023-07-31T14:09:32;19.20;99.90
24158;DHT22;12316;50.904;4.200;2023-07-31T14:11:58;19.40;99.90
24158;DHT22;12316;50.904;4.200;2023-07-31T14:14:23;19.60;99.90
24158;DHT22;12316;50.904;4.200;2023-07-31T14:16:49;19.70;99.90
24158;DHT22;12316;50.904;4.200;2023-07-31T14:19:14;19.50;99.90
24158;DHT22;12316;50.904;4.200;2023-07-31T14:21:40;19.50;99.90
24158;DHT22;12316;50.904;4.200;2023-07-31T14:24:06;19.50;99.90
24158;DHT22;12316;50.904;4.200;2023-07-31T14:26:31;19.60;99.90
24158;DHT22;12316;50.904;4.200;2023-07-31T14:28:57;19.80;99.90
24158;DHT22;12316;50.904;4.200;2023-07-31T14:31:23;19.80;99.90
24158;DHT22;12316;50.904;4.200;2023-07-31T14:33:48;19.90;99.90
24158;DHT22;12316;50.904;4.200;2023-07-31T14:36:15;19.90;99.90
24158;DHT22;12316;50.904;4.200;2023-07-31T14:38:40;19.70;99.90
24158;DHT22;12316;50.904;4.200;2023-07-31T14:41:06;19.70;99.90
24158;DHT22;12316;50.904;4.200;2023-07-31T14:43:31;19.60;99.90
24158;DHT22;12316;50.904;4.200;2023-07-31T14:45:57;19.60;99.90
24158;DHT22;12316;50.904;4.200;2023-07-31T14:48:25;19.50;99.90
24158;DHT22;12316;50.904;4.200;2023-07-31T14:50:51;19.50;99.90
24158;DHT22;12316;50.904;4.200;2023-07-31T14:53:16;19.50;99.90
24158;DHT22;12316;50.904;4.200;2023-07-31T14:55:42;19.50;99.90
24158;DHT22;12316;50.904;4.200;2023-07-31T14:58:08;19.40;99.90
24158;DHT22;12316;50.904;4.200;2023-07-31T15:00:36;19.30;99.90
24158;DHT22;12316;50.904;4.200;2023-07-31T15:03:02;19.30;99.90
24158;DHT22;12316;50.904;4.200;2023-07-31T15:05:28;19.20;99.90
24158;DHT22;12316;50.904;4.200;2023-07-31T15:07:53;19.30;99.90
24158;DHT22;12316;50.904;4.200;2023-07-31T15:10:19;19.30;99.90
24158;DHT22;12316;50.904;4.200;2023-07-31T15:12:44;19.20;99.90
24158;DHT22;12316;50.904;4.200;2023-07-31T15:15:10;19.20;99.90
24158;DHT22;12316;50.904;4.200;2023-07-31T15:17:36;19.20;99.90
24158;DHT22;12316;50.904;4.200;2023-07-31T15:20:01;19.20;99.90
24158;DHT22;12316;50.904;4.200;2023-07-31T15:22:27;19.30;99.90
24158;DHT22;12316;50.904;4.200;2023-07-31T15:24:53;19.20;99.90
24158;DHT22;12316;50.904;4.200;2023-07-31T15:27:18;19.20;99.90
24158;DHT22;12316;50.904;4.200;2023-07-31T15:29:44;19.40;99.90
24158;DHT22;12316;50.904;4.200;2023-07-31T15:32:10;19.50;99.90
24158;DHT22;12316;50.904;4.200;2023-07-31T15:34:35;19.50;99.90
24158;DHT22;12316;50.904;4.200;2023-07-31T15:37:01;19.50;99.90
24158;DHT22;12316;50.904;4.200;2023-07-31T15:39:26;19.50;99.90